<?xml version='1.0' encoding='UTF-8'?>
<gpx xmlns="http://www.topografix.com/GPX/1/1" creator="www.balnam.be" version="1.1" xmlns:xsi="http://www.w3.org/2001/XMLSchema-instance" xsi:schemaLocation="http://www.topografix.com/GPX/1/1 http://www.topografix.com/GPX/1/1/gpx.xsd">
<trk>
<name>xhmhmi21</name>
<cmt>v</cmt>
<desc>Herbeumont Chemin n°i21 </desc>
<link href="https://chemins.be/herbeumont/chemin/i21"/><trkseg>
<trkpt lat="49.785472" lon="5.307426"><time>2026-05-02T17:08:26Z</time></trkpt>
<trkpt lat="49.785912" lon="5.306236"><time>2026-05-02T17:18:26Z</time></trkpt>
<trkpt lat="49.786037" lon="5.303467"><time>2026-05-02T17:28:26Z</time></trkpt>
<trkpt lat="49.787492" lon="5.302030"><time>2026-05-02T17:38:26Z</time></trkpt>
<trkpt lat="49.788697" lon="5.302352"><time>2026-05-02T17:48:26Z</time></trkpt>
<trkpt lat="49.789555" lon="5.301547"><time>2026-05-02T17:58:26Z</time></trkpt>
<trkpt lat="49.791218" lon="5.301236"><time>2026-05-02T18:08:26Z</time></trkpt>
<trkpt lat="49.792616" lon="5.301947"><time>2026-05-02T18:18:26Z</time></trkpt>
<trkpt lat="49.792950" lon="5.301365"><time>2026-05-02T18:28:26Z</time></trkpt>
<trkpt lat="49.793046" lon="5.297749"><time>2026-05-02T18:38:26Z</time></trkpt>
<trkpt lat="49.792630" lon="5.295410"><time>2026-05-02T18:48:26Z</time></trkpt>
<trkpt lat="49.793004" lon="5.293822"><time>2026-05-02T18:58:26Z</time></trkpt>
<trkpt lat="49.792533" lon="5.291333"><time>2026-05-02T19:08:26Z</time></trkpt>
<trkpt lat="49.792769" lon="5.289638"><time>2026-05-02T19:18:26Z</time></trkpt>
<trkpt lat="49.792893" lon="5.289123"><time>2026-05-02T19:28:26Z</time></trkpt>
<trkpt lat="49.792630" lon="5.288007"><time>2026-05-02T19:38:26Z</time></trkpt>
<trkpt lat="49.793505" lon="5.285159"><time>2026-05-02T19:48:26Z</time></trkpt>
<trkpt lat="49.793467" lon="5.284097"><time>2026-05-02T19:58:26Z</time></trkpt>
<trkpt lat="49.793228" lon="5.283893"><time>2026-05-02T20:08:26Z</time></trkpt>
<trkpt lat="49.793055" lon="5.283281"><time>2026-05-02T20:18:26Z</time></trkpt>
<trkpt lat="49.793033" lon="5.281988"><time>2026-05-02T20:28:26Z</time></trkpt>
<trkpt lat="49.789805" lon="5.277225"><time>2026-05-02T20:38:26Z</time></trkpt>
<trkpt lat="49.789444" lon="5.275390"><time>2026-05-02T20:48:26Z</time></trkpt>
<trkpt lat="49.789693" lon="5.273888"><time>2026-05-02T20:58:26Z</time></trkpt>
<trkpt lat="49.789250" lon="5.271485"><time>2026-05-02T21:08:26Z</time></trkpt>
<trkpt lat="49.788724" lon="5.270627"><time>2026-05-02T21:18:26Z</time></trkpt>
<trkpt lat="49.788322" lon="5.269039"><time>2026-05-02T21:28:26Z</time></trkpt>
<trkpt lat="49.788654" lon="5.267429"><time>2026-05-02T21:38:26Z</time></trkpt>
<trkpt lat="49.787560" lon="5.262644"><time>2026-05-02T21:48:26Z</time></trkpt>
<trkpt lat="49.785440" lon="5.262344"><time>2026-05-02T21:58:26Z</time></trkpt>
<trkpt lat="49.782201" lon="5.260533"><time>2026-05-02T22:08:26Z</time></trkpt>
<trkpt lat="49.781858" lon="5.260619"><time>2026-05-02T22:18:26Z</time></trkpt>
</trkseg>
</trk>
</gpx>